Time;durP1;ratioP1;P1;durP2;ratioP2;P2;SDS_P1;SDS_P2;PMS_P1;PMS_P2;Temp;Humidity;BMP_temperature;BMP_pressure;BME280_temperature;BME280_humidity;BME280_pressure;Samples;Min_cycle;Max_cycle;Signal;HPM_P1;HPM_P2
2022/11/04 00:05:09;;;;;;;3.22;1.30;;;;;;;10.03;100.00;99350.16;20982164;28;20064;-79
2022/11/04 00:35:50;;;;;;;4.88;1.38;;;;;;;9.82;100.00;99416.19;20998648;28;20067;-80
2022/11/04 00:45:51;;;;;;;5.20;1.50;;;;;;;9.81;100.00;99419.66;21009768;28;20044;-80
2022/11/04 00:55:53;;;;;;;3.97;1.35;;;;;;;9.76;100.00;99434.63;20999216;28;20052;-78
2022/11/04 01:05:54;;;;;;;4.32;1.73;;;;;;;9.65;100.00;99437.53;20996637;28;20450;-79
2022/11/04 01:15:55;;;;;;;5.45;2.55;;;;;;;9.70;100.00;99442.66;20994142;28;20064;-79
2022/11/04 01:25:57;;;;;;;5.55;1.55;;;;;;;9.70;100.00;99440.88;20997852;28;20483;-77
2022/11/04 01:35:58;;;;;;;4.57;1.20;;;;;;;9.77;100.00;99441.56;20993932;28;20048;-77
2022/11/04 01:46:00;;;;;;;3.70;1.27;;;;;;;9.77;100.00;99445.06;20920547;28;20055;-76
2022/11/04 01:56:03;;;;;;;3.03;1.30;;;;;;;9.63;100.00;99439.38;20908907;28;20049;-76
2022/11/04 02:06:04;;;;;;;3.08;1.30;;;;;;;9.55;100.00;99446.53;20908495;28;20060;-77
2022/11/04 02:16:05;;;;;;;3.22;1.15;;;;;;;9.39;100.00;99455.66;20911438;28;20401;-79
2022/11/04 02:26:07;;;;;;;3.30;1.23;;;;;;;9.28;100.00;99458.56;20906693;28;20064;-75
2022/11/04 02:36:08;;;;;;;6.30;1.13;;;;;;;9.22;100.00;99443.91;20904049;28;20053;-75
2022/11/04 02:46:10;;;;;;;5.75;1.58;;;;;;;9.14;100.00;99451.06;20976100;28;20052;-76
2022/11/04 02:56:11;;;;;;;5.68;1.50;;;;;;;9.10;100.00;99459.00;20985965;28;20056;-76
2022/11/04 03:06:13;;;;;;;4.85;1.50;;;;;;;8.99;100.00;99467.97;20985243;28;20056;-78
2022/11/04 03:16:14;;;;;;;2.72;1.20;;;;;;;8.93;100.00;99483.78;20986201;28;20056;-77
2022/11/04 03:26:15;;;;;;;3.95;1.00;;;;;;;8.84;100.00;99478.78;20984376;28;20527;-76
2022/11/04 03:36:17;;;;;;;7.60;1.88;;;;;;;8.84;100.00;99473.56;20983271;28;20523;-77
2022/11/04 03:46:21;;;;;;;7.97;1.55;;;;;;;8.70;100.00;99473.03;20909658;28;20049;-76
2022/11/04 03:56:22;;;;;;;3.72;1.38;;;;;;;8.59;100.00;99478.50;20898699;28;20098;-76
2022/11/04 04:06:24;;;;;;;6.75;1.60;;;;;;;8.49;100.00;99477.00;20910932;28;20391;-76
2022/11/04 04:16:25;;;;;;;9.05;1.48;;;;;;;8.41;100.00;99455.44;20915700;28;20076;-77
2022/11/04 04:36:52;;;;;;;4.23;1.60;;;;;;;8.32;100.00;99442.53;20885141;28;20045;-76
2022/11/04 04:46:53;;;;;;;6.93;2.50;;;;;;;8.28;100.00;99443.50;20992904;28;20202;-76
2022/11/04 04:56:55;;;;;;;7.22;1.70;;;;;;;8.15;100.00;99429.88;20995006;28;20060;-76
2022/11/04 05:06:56;;;;;;;6.85;1.85;;;;;;;8.11;100.00;99425.63;20993581;28;20497;-75
2022/11/04 05:16:58;;;;;;;8.07;1.90;;;;;;;8.09;100.00;99419.56;20992828;28;20125;-75
2022/11/04 05:26:59;;;;;;;6.00;1.70;;;;;;;8.02;100.00;99397.16;20993351;28;20566;-78
2022/11/04 05:37:01;;;;;;;4.53;1.60;;;;;;;7.93;100.00;99375.59;20991967;28;20048;-79
2022/11/04 05:47:02;;;;;;;5.50;1.80;;;;;;;7.83;100.00;99368.84;20911332;28;20053;-78
2022/11/04 05:57:03;;;;;;;4.75;2.00;;;;;;;7.75;100.00;99389.00;20907900;28;20056;-78
2022/11/04 06:07:05;;;;;;;6.95;2.63;;;;;;;7.71;100.00;99393.44;20908672;28;20092;-79
2022/11/04 06:17:06;;;;;;;7.55;2.13;;;;;;;7.72;100.00;99404.72;20907608;28;20045;-78
2022/11/04 06:27:08;;;;;;;6.38;2.20;;;;;;;7.82;100.00;99421.03;20906002;28;20569;-78
2022/11/04 06:37:09;;;;;;;9.38;2.50;;;;;;;7.74;100.00;99421.16;20903416;28;20041;-78
2022/11/04 06:47:11;;;;;;;8.82;3.20;;;;;;;7.72;100.00;99423.81;20984407;28;20057;-77
2022/11/04 06:57:12;;;;;;;8.32;3.88;;;;;;;7.69;100.00;99420.41;20991906;28;20089;-80
2022/11/04 07:07:13;;;;;;;9.55;5.63;;;;;;;7.67;100.00;99446.50;21066188;28;20527;-77
2022/11/04 07:17:15;;;;;;;14.90;7.57;;;;;;;7.70;100.00;99469.00;21067242;28;20079;-76
2022/11/04 07:27:16;;;;;;;15.48;9.43;;;;;;;7.87;100.00;99466.94;21065840;28;20068;-77
2022/11/04 07:37:17;;;;;;;8.95;5.28;;;;;;;8.16;100.00;99452.47;20980332;28;20618;-77
2022/11/04 07:47:19;;;;;;;12.52;6.00;;;;;;;8.51;100.00;99453.47;21053502;28;20048;-76
2022/11/04 07:57:21;;;;;;;10.20;5.22;;;;;;;8.69;100.00;99442.63;21063965;28;20064;-76
2022/11/04 08:07:22;;;;;;;21.33;16.63;;;;;;;8.85;100.00;99441.34;21038540;28;20045;-76
2022/11/04 08:17:23;;;;;;;4.93;1.58;;;;;;;9.11;100.00;99419.81;20938009;28;20084;-75
2022/11/04 08:27:25;;;;;;;5.97;1.88;;;;;;;9.45;100.00;99414.56;20936401;28;20060;-76
2022/11/04 08:37:26;;;;;;;5.07;1.80;;;;;;;9.71;100.00;99416.47;20935422;28;20508;-76
2022/11/04 08:47:28;;;;;;;4.65;1.55;;;;;;;9.92;100.00;99414.16;20949055;28;20090;-76
2022/11/04 08:57:30;;;;;;;3.78;1.17;;;;;;;10.30;100.00;99401.72;20956558;28;20194;-75
2022/11/04 09:07:34;;;;;;;3.88;1.27;;;;;;;10.58;100.00;99407.81;20931853;28;20052;-75
2022/11/04 09:17:35;;;;;;;5.97;1.50;;;;;;;10.83;100.00;99414.88;20910909;28;20049;-75
2022/11/04 09:27:36;;;;;;;4.15;1.33;;;;;;;11.15;100.00;99421.66;20909452;28;20087;-76
2022/11/04 09:37:38;;;;;;;3.85;0.98;;;;;;;11.08;100.00;99441.13;20909944;28;20465;-76
2022/11/04 09:47:39;;;;;;;6.55;1.95;;;;;;;11.17;100.00;99453.94;20990040;28;20113;-76
2022/11/04 09:57:40;;;;;;;4.65;1.30;;;;;;;11.46;100.00;99453.78;20987488;28;20102;-75
2022/11/04 10:07:42;;;;;;;9.23;2.08;;;;;;;11.51;100.00;99457.13;20988293;28;20040;-75
2022/11/04 10:17:43;;;;;;;3.20;1.08;;;;;;;11.41;100.00;99466.19;20987175;28;20052;-75
2022/11/04 10:27:45;;;;;;;9.40;2.17;;;;;;;11.43;100.00;99458.28;20987489;28;20084;-75
2022/11/04 10:37:46;;;;;;;6.43;1.35;;;;;;;11.69;100.00;99439.88;20982435;28;20041;-73
2022/11/04 10:47:47;;;;;;;5.55;1.40;;;;;;;11.95;100.00;99444.22;20902131;28;20079;-72
2022/11/04 10:57:49;;;;;;;7.25;1.00;;;;;;;11.94;100.00;99449.53;20901364;28;20053;-74
2022/11/04 11:07:50;;;;;;;7.28;1.52;;;;;;;11.66;100.00;99454.88;20899789;28;20132;-73
2022/11/04 11:17:52;;;;;;;6.40;1.10;;;;;;;11.37;100.00;99456.72;20900675;28;20118;-72
2022/11/04 11:27:53;;;;;;;8.27;1.40;;;;;;;11.45;100.00;99457.34;20982967;28;20090;-73
2022/11/04 11:37:55;;;;;;;5.20;1.48;;;;;;;11.62;100.00;99438.38;20961785;28;20045;-73
2022/11/04 11:47:56;;;;;;;5.28;1.33;;;;;;;11.84;100.00;99416.69;21053710;28;20052;-74
2022/11/04 11:57:58;;;;;;;8.02;1.45;;;;;;;11.95;100.00;99404.88;21053674;28;20052;-75
2022/11/04 12:08:20;;;;;;;11.52;2.35;;;;;;;12.17;100.00;99401.41;21052204;28;20054;-73
2022/11/04 12:18:41;;;;;;;7.90;1.88;;;;;;;12.32;100.00;99392.97;21052601;28;20040;-74
2022/11/04 12:28:42;;;;;;;5.88;1.60;;;;;;;12.32;100.00;99392.97;21066902;28;20408;-73
2022/11/04 12:38:44;;;;;;;5.32;1.80;;;;;;;12.57;100.00;99387.59;21055986;28;20083;-73
2022/11/04 12:48:46;;;;;;;6.35;1.00;;;;;;;12.49;100.00;99397.53;20982641;28;20159;-75
2022/11/04 12:58:53;;;;;;;7.75;1.30;;;;;;;12.45;100.00;99398.56;20982741;28;20082;-74
2022/11/04 13:08:54;;;;;;;4.25;1.58;;;;;;;12.61;100.00;99406.72;21064790;28;20139;-75
2022/11/04 13:18:55;;;;;;;5.38;1.08;;;;;;;12.73;100.00;99414.94;21014383;28;20060;-77
2022/11/04 13:28:58;;;;;;;5.20;1.40;;;;;;;12.67;100.00;99432.72;20978093;28;20075;-77
2022/11/04 13:39:07;;;;;;;23.73;5.32;;;;;;;12.45;100.00;99445.84;20985879;28;20470;-76
2022/11/04 13:49:08;;;;;;;9.50;1.90;;;;;;;12.39;100.00;99453.97;20993014;28;20052;-76
2022/11/04 13:59:10;;;;;;;7.47;1.45;;;;;;;12.23;100.00;99477.31;20976973;28;20051;-76
2022/11/04 14:09:11;;;;;;;7.13;1.10;;;;;;;12.09;100.00;99480.44;20976080;28;20431;-75
2022/11/04 14:19:13;;;;;;;7.53;1.35;;;;;;;11.92;100.00;99499.41;20995345;28;20077;-77
2022/11/04 14:29:14;;;;;;;4.40;1.00;;;;;;;11.71;100.00;99510.63;21059233;28;20072;-73
2022/11/04 14:39:15;;;;;;;4.97;2.00;;;;;;;11.70;100.00;99508.91;21052829;28;20075;-74
2022/11/04 14:49:17;;;;;;;3.50;1.38;;;;;;;11.56;100.00;99509.38;21057989;28;20055;-77
2022/11/04 14:59:18;;;;;;;8.68;3.33;;;;;;;11.45;100.00;99509.75;21035156;22;20538;-78
2022/11/04 15:09:19;;;;;;;11.85;4.40;;;;;;;11.44;100.00;99521.13;20979228;28;20485;-78
2022/11/04 15:19:21;;;;;;;9.23;3.85;;;;;;;11.39;100.00;99536.16;20958796;28;20041;-78
2022/11/04 15:40:08;;;;;;;9.30;3.28;;;;;;;10.98;100.00;99555.81;20952430;28;20036;-78
2022/11/04 15:50:09;;;;;;;9.65;3.80;;;;;;;10.87;100.00;99568.38;20964993;28;20098;-78
2022/11/04 16:00:11;;;;;;;7.90;4.10;;;;;;;10.66;100.00;99582.97;20963090;28;20091;-78
2022/11/04 16:10:12;;;;;;;8.73;4.05;;;;;;;10.49;100.00;99600.03;20962954;28;20044;-79
2022/11/04 16:20:14;;;;;;;9.40;4.10;;;;;;;10.50;100.00;99614.81;20959602;28;20496;-78
2022/11/04 16:30:15;;;;;;;15.43;8.20;;;;;;;10.42;100.00;99619.41;20976553;28;20485;-78
2022/11/04 16:40:16;;;;;;;10.48;6.25;;;;;;;10.40;100.00;99629.06;20951507;28;20048;-78
2022/11/04 16:50:18;;;;;;;8.90;5.32;;;;;;;10.29;100.00;99638.94;20967125;28;20044;-78
2022/11/04 17:00:19;;;;;;;13.80;7.53;;;;;;;10.26;100.00;99650.38;20971203;28;20101;-78
2022/11/04 17:10:21;;;;;;;18.92;8.80;;;;;;;10.30;100.00;99668.59;20969463;28;20489;-78
2022/11/04 17:20:22;;;;;;;10.23;6.00;;;;;;;10.08;100.00;99670.88;20982026;28;20064;-78
2022/11/04 17:30:24;;;;;;;13.07;5.95;;;;;;;10.15;100.00;99688.97;21000967;28;20044;-78
2022/11/04 17:40:25;;;;;;;21.48;12.27;;;;;;;10.05;100.00;99710.19;20997805;28;20045;-78
2022/11/04 17:50:26;;;;;;;31.35;18.27;;;;;;;10.04;100.00;99727.63;20962319;28;20048;-78
2022/11/04 18:00:29;;;;;;;11.43;6.85;;;;;;;10.01;100.00;99756.47;20983873;28;20098;-78
2022/11/04 18:10:30;;;;;;;22.08;11.07;;;;;;;9.96;100.00;99769.66;20973539;28;20117;-78
2022/11/04 18:20:33;;;;;;;14.63;9.15;;;;;;;10.03;100.00;99773.84;20986865;28;20516;-78
2022/11/04 18:30:34;;;;;;;19.92;11.88;;;;;;;10.03;100.00;99773.84;20971941;28;20045;-78
2022/11/04 18:40:35;;;;;;;21.73;15.82;;;;;;;10.07;100.00;99785.09;20971496;28;20087;-78
2022/11/04 18:50:37;;;;;;;17.83;11.68;;;;;;;10.00;100.00;99800.06;20974371;28;20469;-78
2022/11/04 19:00:39;;;;;;;12.20;6.72;;;;;;;9.89;100.00;99807.31;20968454;28;20098;-78
2022/11/04 19:10:40;;;;;;;37.03;15.40;;;;;;;9.92;100.00;99817.72;20983018;28;20047;-78
2022/11/04 19:21:01;;;;;;;12.80;5.78;;;;;;;9.96;100.00;99823.72;20965274;28;20378;-78
2022/11/04 19:31:03;;;;;;;18.50;9.52;;;;;;;9.93;100.00;99835.13;20964308;28;20393;-78
2022/11/04 19:41:04;;;;;;;13.48;7.18;;;;;;;9.90;100.00;99856.09;20970542;28;20106;-78
2022/11/04 19:51:06;;;;;;;18.38;10.02;;;;;;;9.88;100.00;99877.94;20980963;28;20052;-78
2022/11/04 20:01:07;;;;;;;11.98;5.90;;;;;;;9.96;100.00;99884.72;20955426;28;20041;-77
2022/11/04 20:11:09;;;;;;;10.43;6.00;;;;;;;9.92;100.00;99901.38;20954786;28;20036;-77
2022/11/04 20:21:10;;;;;;;13.00;7.32;;;;;;;9.89;100.00;99911.91;20962346;28;20067;-77
2022/11/04 20:31:11;;;;;;;10.65;4.95;;;;;;;9.84;100.00;99926.81;20963009;28;20049;-78
2022/11/04 20:41:17;;;;;;;12.18;4.65;;;;;;;9.88;100.00;99951.16;20956083;28;20048;-78
2022/11/04 20:51:18;;;;;;;11.35;4.13;;;;;;;9.76;100.00;99968.81;20967745;28;20481;-78
2022/11/04 21:01:24;;;;;;;14.13;5.22;;;;;;;9.75;100.00;99974.94;20962300;28;20060;-78
2022/11/04 21:11:26;;;;;;;9.68;3.90;;;;;;;9.76;100.00;99984.47;20973429;28;20065;-79
2022/11/04 21:21:32;;;;;;;7.45;4.45;;;;;;;9.76;100.00;99997.56;20983194;28;20786;-78
2022/11/04 21:31:33;;;;;;;8.95;4.32;;;;;;;9.75;100.00;100011.53;20977031;28;20045;-78
2022/11/04 21:41:38;;;;;;;8.80;4.90;;;;;;;9.80;100.00;100016.69;20974322;28;20040;-79
2022/11/04 21:51:39;;;;;;;16.07;6.67;;;;;;;9.70;100.00;100025.56;20966028;28;20049;-79
2022/11/04 22:01:40;;;;;;;19.60;7.20;;;;;;;9.68;100.00;100043.91;20961452;28;20040;-78
2022/11/04 22:11:42;;;;;;;11.52;6.20;;;;;;;9.66;100.00;100047.44;20966473;28;20052;-79
2022/11/04 22:21:43;;;;;;;11.18;6.00;;;;;;;9.66;100.00;100042.22;20972872;28;20110;-79
2022/11/04 22:31:45;;;;;;;11.73;5.95;;;;;;;9.63;100.00;100055.31;20971191;28;20055;-79
2022/11/04 22:41:46;;;;;;;10.73;5.82;;;;;;;9.55;100.00;100057.22;20956583;28;20052;-78
2022/11/04 22:51:48;;;;;;;9.65;5.18;;;;;;;9.52;100.00;100064.22;20968502;28;20049;-78
2022/11/04 23:01:49;;;;;;;10.02;5.53;;;;;;;9.48;100.00;100072.13;20962419;28;20460;-79
2022/11/04 23:32:31;;;;;;;8.13;4.95;;;;;;;9.50;100.00;100086.91;20945411;28;20051;-78
2022/11/04 23:42:32;;;;;;;8.85;4.75;;;;;;;9.47;100.00;100109.59;20961790;28;20044;-79
